Time;durP1;ratioP1;P1;durP2;ratioP2;P2;SDS_P1;SDS_P2;PMS_P1;PMS_P2;Temp;Humidity;BMP_temperature;BMP_pressure;BME280_temperature;BME280_humidity;BME280_pressure;Samples;Min_cycle;Max_cycle;Signal;HPM_P1;HPM_P2
2023/05/30 00:00:26;;;;;;;10.68;3.25;;;;;;;12.01;60.44;102379.72;3615387;39;20375;-67
2023/05/30 00:02:52;;;;;;;13.27;3.45;;;;;;;11.97;60.92;102383.50;3614562;39;20062;-67
2023/05/30 00:05:17;;;;;;;13.27;3.47;;;;;;;11.92;61.94;102374.72;3614323;39;20047;-67
2023/05/30 00:07:43;;;;;;;15.80;3.58;;;;;;;11.84;61.32;102378.63;3615545;39;20110;-67
2023/05/30 00:10:09;;;;;;;14.77;3.20;;;;;;;11.84;61.87;102384.03;3615579;39;20050;-67
2023/05/30 00:12:35;;;;;;;8.98;2.60;;;;;;;11.71;61.98;102380.06;3615237;39;20055;-67
2023/05/30 00:15:04;;;;;;;17.65;3.33;;;;;;;11.78;62.52;102389.63;3615863;39;20262;-67
2023/05/30 00:17:32;;;;;;;11.75;2.97;;;;;;;11.76;63.14;102396.88;3614089;39;20038;-67
2023/05/30 00:19:58;;;;;;;13.45;3.78;;;;;;;11.76;63.28;102391.50;3615266;39;20049;-67
2023/05/30 00:22:23;;;;;;;13.50;3.17;;;;;;;11.74;62.89;102390.72;3614900;39;20051;-67
2023/05/30 00:24:51;;;;;;;21.27;4.03;;;;;;;11.72;63.61;102384.50;3615934;39;20043;-68
2023/05/30 00:27:17;;;;;;;17.30;3.53;;;;;;;11.70;63.98;102390.88;3615010;39;20385;-67
2023/05/30 00:29:45;;;;;;;13.13;3.20;;;;;;;11.62;64.07;102386.69;3614390;39;20062;-68
2023/05/30 00:32:11;;;;;;;12.30;3.05;;;;;;;11.56;64.86;102392.34;3614924;39;20139;-69
2023/05/30 00:34:37;;;;;;;14.80;3.08;;;;;;;11.58;64.20;102392.28;3613426;39;20289;-68
2023/05/30 00:37:05;;;;;;;14.45;3.58;;;;;;;11.27;64.45;102336.97;3614914;39;20058;-68
2023/05/30 00:39:31;;;;;;;16.15;3.17;;;;;;;11.23;65.14;102343.44;3617539;39;20118;-67
2023/05/30 00:41:57;;;;;;;16.30;3.47;;;;;;;11.49;65.64;102393.53;3615446;39;20058;-67
2023/05/30 00:44:23;;;;;;;8.75;2.83;;;;;;;11.16;65.25;102347.28;3615685;39;20400;-67
2023/05/30 00:46:51;;;;;;;11.15;3.28;;;;;;;11.43;65.80;102390.22;3614061;39;20043;-67
2023/05/30 00:49:18;;;;;;;16.38;3.50;;;;;;;11.43;65.54;102398.28;3614176;39;20050;-68
2023/05/30 00:51:44;;;;;;;12.20;3.25;;;;;;;11.39;65.34;102403.81;3613777;39;20145;-67
2023/05/30 00:54:11;;;;;;;14.38;3.20;;;;;;;11.40;65.66;102410.06;3614239;39;20120;-67
2023/05/30 00:56:37;;;;;;;13.77;3.28;;;;;;;11.37;66.13;102411.06;3615876;39;20124;-67
2023/05/30 00:59:03;;;;;;;14.85;3.10;;;;;;;11.36;66.08;102413.81;3615197;39;20063;-68
2023/05/30 01:01:32;;;;;;;9.85;3.28;;;;;;;11.33;66.84;102413.94;3615230;39;20141;-67
2023/05/30 01:03:59;;;;;;;12.98;3.22;;;;;;;11.30;66.61;102412.25;3614574;39;20302;-66
2023/05/30 01:06:29;;;;;;;12.15;2.95;;;;;;;11.25;67.10;102414.22;3615114;39;20043;-67
2023/05/30 01:08:58;;;;;;;12.48;3.42;;;;;;;11.22;67.57;102419.72;3614070;39;20417;-67
2023/05/30 01:11:56;;;;;;;14.45;3.47;;;;;;;11.10;68.14;102404.94;3613823;39;20050;-67
2023/05/30 01:14:33;;;;;;;11.50;3.40;;;;;;;11.14;68.07;102416.47;3615754;39;20063;-67
2023/05/30 01:17:18;;;;;;;14.75;3.25;;;;;;;11.13;68.37;102412.00;3614001;39;20055;-68
2023/05/30 01:20:09;;;;;;;13.00;3.17;;;;;;;11.14;68.03;102416.47;3613379;39;20463;-67
2023/05/30 01:23:06;;;;;;;15.23;3.25;;;;;;;11.12;67.92;102399.50;3614541;39;20047;-68
2023/05/30 01:26:05;;;;;;;18.10;3.28;;;;;;;11.08;68.44;102411.31;3613734;39;20043;-67
2023/05/30 01:28:36;;;;;;;16.58;3.38;;;;;;;11.06;68.76;102405.97;3615483;39;20061;-68
2023/05/30 01:31:03;;;;;;;15.38;3.92;;;;;;;11.03;68.84;102399.84;3615732;39;20079;-68
2023/05/30 01:33:31;;;;;;;16.25;3.35;;;;;;;11.01;69.09;102407.13;3615626;39;20049;-68
2023/05/30 01:35:56;;;;;;;13.45;3.60;;;;;;;11.01;68.94;102407.13;3615281;39;20050;-68
2023/05/30 01:38:22;;;;;;;14.73;4.13;;;;;;;10.97;68.47;102402.78;3613646;39;20323;-67
2023/05/30 01:40:59;;;;;;;15.98;3.67;;;;;;;10.84;69.10;102405.06;3615714;39;20051;-67
2023/05/30 01:43:39;;;;;;;15.68;3.40;;;;;;;10.91;69.40;102411.97;3613686;39;20100;-67
2023/05/30 01:46:36;;;;;;;15.43;3.83;;;;;;;10.87;69.79;102416.56;3614616;39;20271;-68
2023/05/30 01:49:32;;;;;;;15.80;3.53;;;;;;;10.87;70.04;102413.88;3613984;39;20086;-67
2023/05/30 01:52:32;;;;;;;12.65;3.40;;;;;;;10.85;70.19;102418.47;3615050;39;20051;-67
2023/05/30 01:55:07;;;;;;;11.18;3.53;;;;;;;10.85;69.77;102422.97;3613396;39;20054;-67
2023/05/30 01:57:44;;;;;;;18.75;3.90;;;;;;;10.83;69.89;102425.69;3607313;39;20038;-67
2023/05/30 02:00:14;;;;;;;12.70;3.80;;;;;;;10.83;70.16;102430.22;3614000;39;20128;-68
2023/05/30 02:02:45;;;;;;;12.50;3.35;;;;;;;10.43;69.88;102367.13;3614338;39;20093;-68
2023/05/30 02:05:11;;;;;;;15.75;3.72;;;;;;;10.73;70.13;102423.41;3614278;39;20374;-67
2023/05/30 02:07:37;;;;;;;13.05;3.40;;;;;;;10.75;69.88;102432.28;3614487;39;20462;-68
2023/05/30 02:10:03;;;;;;;16.30;3.60;;;;;;;10.37;70.39;102373.63;3615005;39;20063;-67
2023/05/30 02:12:29;;;;;;;13.35;3.60;;;;;;;10.69;70.52;102433.41;3614619;39;20234;-67
2023/05/30 02:14:55;;;;;;;13.93;3.80;;;;;;;10.49;70.57;102403.66;3613241;39;20061;-68
2023/05/30 02:17:22;;;;;;;15.77;4.00;;;;;;;10.64;70.93;102435.38;3613258;39;20293;-67
2023/05/30 02:19:49;;;;;;;13.57;3.72;;;;;;;10.63;70.47;102439.00;3613166;39;20135;-68
2023/05/30 02:22:15;;;;;;;15.18;4.00;;;;;;;10.60;70.65;102436.44;3613737;39;20062;-67
2023/05/30 02:24:41;;;;;;;13.40;3.83;;;;;;;10.55;71.21;102435.72;3615114;39;20209;-67
2023/05/30 02:27:08;;;;;;;11.25;3.30;;;;;;;10.53;70.98;102434.88;3615821;39;20055;-68
2023/05/30 02:29:34;;;;;;;16.45;3.65;;;;;;;10.49;71.63;102436.81;3613222;39;20301;-68
2023/05/30 02:32:00;;;;;;;17.88;4.20;;;;;;;10.50;71.55;102434.97;3613992;39;20087;-68
2023/05/30 02:34:25;;;;;;;13.20;3.70;;;;;;;10.47;71.90;102430.63;3613146;39;20050;-68
2023/05/30 02:36:51;;;;;;;13.98;3.70;;;;;;;10.47;71.39;102440.50;3613128;39;20055;-68
2023/05/30 02:39:17;;;;;;;13.48;3.97;;;;;;;10.47;72.17;102443.19;3614742;39;20063;-67
2023/05/30 02:41:42;;;;;;;18.95;3.95;;;;;;;10.43;72.01;102437.94;3614206;39;20046;-68
2023/05/30 02:44:08;;;;;;;13.32;3.67;;;;;;;10.39;71.99;102432.69;3615215;39;20050;-68
2023/05/30 02:46:35;;;;;;;14.93;4.28;;;;;;;10.36;72.39;102430.97;3613902;39;20077;-68
2023/05/30 02:49:01;;;;;;;11.65;3.70;;;;;;;10.35;72.11;102428.38;3613956;39;20054;-67
2023/05/30 02:51:27;;;;;;;11.95;3.80;;;;;;;10.36;72.06;102433.66;3612976;39;20043;-68
2023/05/30 02:53:53;;;;;;;15.07;4.15;;;;;;;10.27;72.15;102409.81;3613726;39;20305;-67
2023/05/30 02:56:24;;;;;;;14.10;3.90;;;;;;;10.25;72.44;102413.47;3605398;39;20062;-68
2023/05/30 02:58:50;;;;;;;14.55;4.13;;;;;;;10.32;73.19;102425.78;3614951;39;20125;-68
2023/05/30 03:01:16;;;;;;;14.48;4.00;;;;;;;10.20;72.65;102403.72;3614319;39;20450;-68
2023/05/30 03:03:42;;;;;;;15.98;3.92;;;;;;;10.28;72.65;102421.47;3612876;39;20073;-68
2023/05/30 03:06:08;;;;;;;17.88;4.03;;;;;;;10.26;73.39;102421.50;3615453;39;20376;-67
2023/05/30 03:08:35;;;;;;;12.52;3.53;;;;;;;10.25;73.17;102414.34;3613006;39;20057;-68
2023/05/30 03:11:01;;;;;;;20.83;4.25;;;;;;;10.26;72.53;102426.88;3611589;39;20047;-68
2023/05/30 03:13:26;;;;;;;12.05;3.67;;;;;;;10.25;72.86;102427.78;3616052;39;20416;-67
2023/05/30 03:15:52;;;;;;;15.52;3.92;;;;;;;10.26;73.07;102428.66;3615469;39;20147;-68
2023/05/30 03:18:17;;;;;;;14.68;3.80;;;;;;;10.29;73.25;102439.31;3615250;39;20055;-68
2023/05/30 03:20:43;;;;;;;17.63;4.22;;;;;;;10.26;72.28;102434.94;3614595;39;20090;-67
2023/05/30 03:23:09;;;;;;;14.45;4.13;;;;;;;10.20;72.98;102427.03;3616863;39;20123;-68
2023/05/30 03:25:35;;;;;;;17.95;3.95;;;;;;;10.31;72.52;102442.84;3604601;39;20055;-67
2023/05/30 03:28:05;;;;;;;16.73;4.25;;;;;;;10.33;73.04;102446.34;3616486;39;20426;-67
2023/05/30 03:30:34;;;;;;;18.45;4.32;;;;;;;10.28;73.14;102430.41;3616732;39;20062;-67
2023/05/30 03:33:01;;;;;;;15.40;3.60;;;;;;;10.45;73.10;102446.78;3605941;39;20046;-67
2023/05/30 03:35:26;;;;;;;18.25;4.60;;;;;;;10.48;72.58;102450.31;3617137;39;20376;-68
2023/05/30 03:37:52;;;;;;;16.83;3.88;;;;;;;10.49;72.54;102452.06;3617616;39;20047;-68
2023/05/30 03:40:18;;;;;;;13.32;4.10;;;;;;;10.50;72.64;102457.41;3618284;39;20100;-68
2023/05/30 03:42:44;;;;;;;15.57;4.82;;;;;;;10.30;72.36;102408.81;3618780;39;20148;-68
2023/05/30 03:45:10;;;;;;;13.15;4.25;;;;;;;10.62;72.31;102469.50;3616513;39;20081;-67
2023/05/30 03:47:36;;;;;;;13.38;4.20;;;;;;;10.68;71.66;102469.28;3615814;39;20051;-67
2023/05/30 03:50:02;;;;;;;21.42;4.28;;;;;;;10.74;71.91;102471.75;3615147;39;20062;-67
2023/05/30 03:52:28;;;;;;;16.60;4.28;;;;;;;10.82;72.05;102467.00;3615117;39;20043;-66
2023/05/30 03:54:54;;;;;;;17.85;4.10;;;;;;;10.73;71.48;102453.88;3618066;39;20055;-66
2023/05/30 03:57:20;;;;;;;14.35;3.90;;;;;;;10.81;71.46;102469.72;3619094;39;20047;-66
2023/05/30 03:59:46;;;;;;;15.35;4.30;;;;;;;10.78;71.60;102473.41;3621107;39;20058;-67
2023/05/30 04:02:11;;;;;;;15.75;3.95;;;;;;;10.82;71.47;102477.75;3619400;39;20079;-67
2023/05/30 04:04:37;;;;;;;20.52;4.30;;;;;;;10.87;70.48;102480.25;3614711;39;20062;-67
2023/05/30 04:07:03;;;;;;;16.17;4.30;;;;;;;10.84;70.80;102475.88;3617100;39;20095;-67
2023/05/30 04:09:28;;;;;;;17.95;4.05;;;;;;;10.84;70.87;102480.38;3614314;39;20468;-67
2023/05/30 04:11:54;;;;;;;16.40;4.35;;;;;;;10.82;71.53;102477.75;3614761;39;20054;-67
2023/05/30 04:14:20;;;;;;;17.05;4.80;;;;;;;10.87;71.06;102473.06;3615566;39;20062;-66
2023/05/30 04:16:45;;;;;;;14.90;4.38;;;;;;;10.58;71.17;102420.34;3615619;39;20113;-66
2023/05/30 04:19:11;;;;;;;15.05;3.83;;;;;;;10.85;71.99;102472.25;3616643;39;20042;-67
2023/05/30 04:21:36;;;;;;;13.68;4.40;;;;;;;10.86;71.28;102474.00;3615329;39;20054;-66
2023/05/30 04:24:03;;;;;;;16.60;4.70;;;;;;;10.92;71.03;102479.16;3617803;39;20054;-66
2023/05/30 04:26:31;;;;;;;15.95;4.03;;;;;;;10.65;71.53;102416.47;3614083;39;20062;-67
2023/05/30 04:28:57;;;;;;;17.92;4.68;;;;;;;11.00;71.34;102469.94;3614540;39;20054;-67
2023/05/30 04:31:24;;;;;;;19.70;4.90;;;;;;;10.64;71.52;102403.13;3615127;39;20054;-66
2023/05/30 04:33:55;;;;;;;15.15;4.03;;;;;;;11.02;71.10;102468.06;3614230;39;20051;-67
2023/05/30 04:36:21;;;;;;;14.65;4.50;;;;;;;10.87;71.19;102442.59;3614370;39;20039;-67
2023/05/30 04:38:49;;;;;;;14.80;4.45;;;;;;;11.07;70.50;102471.47;3606028;39;20389;-67
2023/05/30 04:41:20;;;;;;;16.27;4.70;;;;;;;11.07;70.38;102468.78;3617618;39;20051;-67
2023/05/30 04:43:57;;;;;;;15.40;4.78;;;;;;;11.11;70.56;102473.09;3616704;39;20054;-67
2023/05/30 04:46:23;;;;;;;17.38;5.15;;;;;;;11.17;70.84;102472.88;3614373;39;20055;-67
2023/05/30 04:48:55;;;;;;;22.00;4.72;;;;;;;11.01;70.85;102439.41;3617394;39;20053;-66
2023/05/30 04:51:25;;;;;;;14.55;4.03;;;;;;;11.21;70.08;102474.50;3617724;39;20046;-66
2023/05/30 04:53:51;;;;;;;17.27;4.05;;;;;;;11.20;71.03;102469.19;3616639;39;20051;-67
2023/05/30 04:56:19;;;;;;;16.13;4.32;;;;;;;11.27;70.80;102463.50;3616880;39;20047;-67
2023/05/30 04:58:48;;;;;;;15.25;4.93;;;;;;;11.32;70.30;102469.59;3615663;39;20047;-66
2023/05/30 05:01:14;;;;;;;14.00;4.32;;;;;;;11.38;70.24;102469.38;3614505;39;20050;-66
2023/05/30 05:03:43;;;;;;;14.02;4.60;;;;;;;11.41;70.39;102457.56;3616714;39;20382;-66
2023/05/30 05:06:10;;;;;;;15.07;4.45;;;;;;;11.49;68.91;102468.06;3613944;39;20051;-66
2023/05/30 05:08:36;;;;;;;14.20;4.30;;;;;;;11.53;69.30;102472.38;3613292;39;20123;-66
2023/05/30 05:11:06;;;;;;;16.50;4.72;;;;;;;11.55;69.12;102478.59;3614248;39;20389;-66
2023/05/30 05:13:33;;;;;;;13.38;4.43;;;;;;;11.59;69.23;102481.09;3616742;39;20050;-66
2023/05/30 05:16:00;;;;;;;12.52;4.68;;;;;;;11.67;69.45;102479.91;3615776;39;20043;-66
2023/05/30 05:18:27;;;;;;;17.08;4.68;;;;;;;11.56;69.55;102443.50;3614029;39;20413;-66
2023/05/30 05:20:53;;;;;;;16.52;4.82;;;;;;;11.78;69.09;102473.16;3616421;39;20359;-67
2023/05/30 05:23:18;;;;;;;14.10;5.18;;;;;;;11.88;68.78;102464.72;3606557;39;20051;-67
2023/05/30 05:25:45;;;;;;;11.63;3.95;;;;;;;11.89;68.09;102466.47;3616944;39;20053;-66
2023/05/30 05:28:11;;;;;;;16.15;4.78;;;;;;;11.90;68.63;102474.50;3614278;39;20047;-66
2023/05/30 05:30:37;;;;;;;20.02;5.03;;;;;;;11.95;67.74;102464.41;3613629;39;20468;-67
2023/05/30 05:33:02;;;;;;;17.50;5.22;;;;;;;11.96;67.42;102473.41;3613331;39;20057;-66
2023/05/30 05:35:28;;;;;;;14.43;4.93;;;;;;;12.01;68.42;102469.53;3612654;39;20055;-66
2023/05/30 05:37:54;;;;;;;13.38;4.63;;;;;;;12.08;67.07;102470.16;3616196;39;20050;-67
2023/05/30 05:40:20;;;;;;;14.70;5.20;;;;;;;12.17;67.45;102469.78;3615801;39;20339;-67
2023/05/30 05:42:45;;;;;;;15.57;4.78;;;;;;;12.18;66.93;102466.16;3615736;39;20046;-67
2023/05/30 05:45:11;;;;;;;11.85;4.47;;;;;;;12.26;66.79;102466.69;3615977;39;20062;-67
2023/05/30 05:47:37;;;;;;;19.83;5.15;;;;;;;12.31;67.00;102467.38;3617987;39;20051;-66
2023/05/30 05:50:03;;;;;;;17.90;4.78;;;;;;;12.42;65.88;102468.75;3615155;39;20062;-66
2023/05/30 05:52:29;;;;;;;17.15;4.75;;;;;;;12.49;66.50;102468.38;3613914;39;20057;-66
2023/05/30 05:54:54;;;;;;;15.40;4.60;;;;;;;12.50;66.00;102474.69;3615708;39;20051;-66
2023/05/30 05:57:20;;;;;;;13.18;4.22;;;;;;;12.62;66.12;102476.81;3614182;39;20300;-67
2023/05/30 05:59:46;;;;;;;16.58;4.85;;;;;;;12.65;64.94;102474.00;3613868;39;20056;-66
2023/05/30 06:02:12;;;;;;;13.63;4.18;;;;;;;12.57;64.71;102481.56;3613737;39;20293;-66
2023/05/30 06:04:38;;;;;;;19.33;5.40;;;;;;;12.58;64.42;102483.31;3615774;39;20046;-67
2023/05/30 06:07:04;;;;;;;13.55;4.60;;;;;;;12.55;65.13;102488.84;3614208;39;20457;-66
2023/05/30 06:09:31;;;;;;;12.90;4.30;;;;;;;12.70;64.86;102477.38;3614523;39;20669;-66
2023/05/30 06:11:58;;;;;;;13.75;4.47;;;;;;;12.68;64.14;102484.66;3613343;39;20112;-67
2023/05/30 06:14:24;;;;;;;13.98;4.60;;;;;;;12.70;64.29;102482.78;3613186;39;20358;-67
2023/05/30 06:16:50;;;;;;;11.05;4.22;;;;;;;12.74;63.57;102487.06;3603383;39;20080;-66
2023/05/30 06:19:16;;;;;;;11.93;4.10;;;;;;;12.68;63.27;102467.59;3618370;39;20062;-66
2023/05/30 06:21:41;;;;;;;12.50;4.47;;;;;;;12.86;64.02;102482.97;3613110;39;20047;-66
2023/05/30 06:24:07;;;;;;;16.80;4.85;;;;;;;12.65;63.56;102447.00;3613154;39;20058;-66
2023/05/30 06:26:33;;;;;;;13.50;4.47;;;;;;;12.96;63.17;102489.69;3614124;39;20074;-67
2023/05/30 06:28:58;;;;;;;12.02;4.20;;;;;;;13.02;63.80;102496.66;3613041;39;20050;-66
2023/05/30 06:31:24;;;;;;;14.63;4.80;;;;;;;13.06;62.87;102482.06;3613328;39;20058;-65
2023/05/30 06:33:50;;;;;;;13.38;4.85;;;;;;;13.23;63.03;102489.41;3612811;39;20047;-66
2023/05/30 06:36:16;;;;;;;13.95;4.40;;;;;;;13.30;62.31;102493.59;3613485;39;20053;-66
2023/05/30 06:38:41;;;;;;;16.20;5.20;;;;;;;13.33;61.92;102488.03;3613333;39;20392;-67
2023/05/30 06:41:07;;;;;;;15.68;7.53;;;;;;;13.44;61.99;102485.69;3613805;39;20068;-65
2023/05/30 06:43:33;;;;;;;13.23;4.45;;;;;;;13.40;61.89;102483.22;3616739;39;20447;-66
2023/05/30 06:45:59;;;;;;;13.60;4.57;;;;;;;13.50;61.78;102479.13;3617960;39;20072;-65
2023/05/30 06:48:24;;;;;;;15.82;4.47;;;;;;;13.62;61.38;102489.38;3618710;39;20047;-65
2023/05/30 06:50:50;;;;;;;12.63;4.80;;;;;;;13.72;61.22;102488.91;3616191;39;20050;-66
2023/05/30 06:53:16;;;;;;;12.15;4.88;;;;;;;13.89;60.72;102483.56;3616626;39;20051;-66
2023/05/30 06:55:42;;;;;;;12.25;4.90;;;;;;;13.97;60.47;102492.16;3615818;39;20051;-65
2023/05/30 06:58:08;;;;;;;15.15;4.82;;;;;;;14.00;60.49;102491.16;3615058;39;20051;-66
2023/05/30 07:00:34;;;;;;;14.32;4.38;;;;;;;14.03;59.49;102493.69;3617880;39;20053;-67
2023/05/30 07:03:00;;;;;;;12.25;4.60;;;;;;;14.12;60.31;102502.22;3617001;39;20042;-66
2023/05/30 07:05:27;;;;;;;12.25;5.63;;;;;;;14.15;58.88;102504.78;3618435;39;20055;-66
2023/05/30 07:07:52;;;;;;;13.35;4.45;;;;;;;14.11;58.73;102508.59;3615943;39;20382;-66
2023/05/30 07:10:18;;;;;;;11.20;4.72;;;;;;;14.09;58.65;102493.41;3615527;39;20051;-66
2023/05/30 07:12:44;;;;;;;10.75;4.53;;;;;;;13.76;59.06;102433.75;3615715;39;20050;-66
2023/05/30 07:15:12;;;;;;;11.32;4.35;;;;;;;14.21;57.48;102508.13;3616095;39;20058;-66
2023/05/30 07:17:38;;;;;;;11.52;4.57;;;;;;;14.22;58.06;102510.75;3615116;39;20095;-66
2023/05/30 07:20:06;;;;;;;14.55;4.63;;;;;;;14.27;58.04;102507.81;3615236;39;20055;-67
2023/05/30 07:22:33;;;;;;;9.65;4.20;;;;;;;14.07;58.55;102466.41;3615388;39;20054;-66
2023/05/30 07:24:58;;;;;;;9.82;5.13;;;;;;;14.34;57.39;102511.97;3614250;39;20448;-66
2023/05/30 07:27:24;;;;;;;11.40;4.70;;;;;;;14.29;56.85;102508.63;3609185;39;20050;-66
2023/05/30 07:29:49;;;;;;;10.63;4.72;;;;;;;14.46;58.46;102514.06;3615242;39;20067;-67
2023/05/30 07:32:15;;;;;;;10.15;4.85;;;;;;;14.73;57.95;102508.19;3614353;39;20088;-67
2023/05/30 07:34:42;;;;;;;10.45;4.57;;;;;;;14.99;56.60;102514.94;3614566;39;20106;-67
2023/05/30 07:37:08;;;;;;;9.27;4.55;;;;;;;15.23;56.58;102508.19;3614699;39;20062;-67
2023/05/30 07:39:33;;;;;;;12.85;4.72;;;;;;;15.36;54.68;102516.53;3617035;39;20061;-66
2023/05/30 07:42:00;;;;;;;9.68;4.82;;;;;;;15.63;55.47;102521.38;3614539;39;20058;-67
2023/05/30 07:44:25;;;;;;;9.68;4.35;;;;;;;15.69;54.04;102524.63;3617211;39;20108;-66
2023/05/30 07:46:51;;;;;;;8.38;4.45;;;;;;;15.56;54.45;102529.84;3616253;39;20053;-66
2023/05/30 07:49:18;;;;;;;10.70;4.70;;;;;;;15.58;54.55;102527.06;3615814;39;20055;-66
2023/05/30 07:51:44;;;;;;;7.60;4.13;;;;;;;15.59;53.71;102526.09;3615026;39;20050;-66
2023/05/30 07:54:10;;;;;;;17.30;5.28;;;;;;;15.52;53.45;102524.69;3616227;39;20059;-66
2023/05/30 07:56:35;;;;;;;12.75;5.82;;;;;;;15.39;53.16;102516.34;3615984;39;20375;-66
2023/05/30 07:59:01;;;;;;;14.50;5.25;;;;;;;15.35;53.90;102501.25;3616595;39;20451;-66
2023/05/30 08:01:27;;;;;;;11.15;4.85;;;;;;;15.33;53.81;102503.16;3614246;39;20057;-66
2023/05/30 08:03:53;;;;;;;10.27;4.65;;;;;;;15.00;54.52;102455.28;3616943;39;20282;-67
2023/05/30 08:06:20;;;;;;;8.80;4.78;;;;;;;15.66;53.82;102508.50;3614088;39;20095;-66
2023/05/30 08:08:46;;;;;;;11.35;4.95;;;;;;;15.92;53.78;102496.22;3616636;39;20039;-66
2023/05/30 08:11:13;;;;;;;10.55;4.70;;;;;;;16.33;52.68;102503.75;3614649;39;20059;-67
2023/05/30 08:13:39;;;;;;;12.85;4.57;;;;;;;16.52;51.53;102503.53;3615543;39;20046;-67
2023/05/30 08:16:09;;;;;;;10.00;4.70;;;;;;;16.75;51.85;102504.00;3614482;39;20411;-66
2023/05/30 08:18:35;;;;;;;7.38;4.65;;;;;;;17.05;51.80;102506.69;3606722;39;20053;-66
2023/05/30 08:21:01;;;;;;;8.68;4.28;;;;;;;17.22;48.98;102498.38;3613912;39;20042;-65
2023/05/30 08:23:27;;;;;;;13.02;4.32;;;;;;;17.51;49.51;102503.78;3615794;39;20061;-65
2023/05/30 08:25:53;;;;;;;9.38;4.57;;;;;;;17.70;49.31;102498.91;3613606;39;20063;-66
2023/05/30 08:28:20;;;;;;;10.18;4.72;;;;;;;17.72;49.63;102501.50;3613883;39;20043;-66
2023/05/30 08:30:48;;;;;;;10.25;4.45;;;;;;;17.56;48.29;102496.19;3614299;39;20047;-65
2023/05/30 08:33:18;;;;;;;10.30;4.78;;;;;;;17.44;47.26;102496.97;3615739;39;20367;-65
2023/05/30 08:35:45;;;;;;;9.45;4.97;;;;;;;17.36;49.77;102501.06;3615069;39;20062;-65
2023/05/30 08:38:12;;;;;;;10.15;4.60;;;;;;;17.60;48.39;102489.56;3616050;39;20043;-66
2023/05/30 08:40:45;;;;;;;8.63;4.70;;;;;;;17.72;47.89;102490.63;3615064;39;20124;-67
2023/05/30 08:43:11;;;;;;;;;;;;;;;17.60;47.85;102443.34;3617115;39;20073;-65
2023/05/30 08:45:38;;;;;;;10.77;4.95;;;;;;;18.07;46.57;102491.03;3614162;39;20028;-65
2023/05/30 08:48:06;;;;;;;7.80;4.35;;;;;;;18.15;45.71;102488.69;3615617;39;20420;-67
2023/05/30 08:50:36;;;;;;;7.57;4.63;;;;;;;18.30;45.59;102479.50;3614287;39;20086;-66
2023/05/30 08:53:12;;;;;;;12.02;4.78;;;;;;;18.43;45.33;102489.53;3614547;39;20372;-66
2023/05/30 08:55:54;;;;;;;7.63;4.60;;;;;;;18.53;45.90;102477.91;3614626;39;20047;-66
2023/05/30 08:58:28;;;;;;;12.18;5.38;;;;;;;18.49;46.38;102487.28;3615154;39;20352;-66
2023/05/30 09:00:54;;;;;;;8.65;4.25;;;;;;;18.59;46.59;102486.63;3613883;39;20124;-66
2023/05/30 09:03:23;;;;;;;10.38;4.70;;;;;;;18.59;45.75;102465.72;3614153;39;20062;-66
2023/05/30 09:05:52;;;;;;;9.02;4.07;;;;;;;18.86;44.20;102482.00;3614147;39;20407;-66
2023/05/30 09:08:21;;;;;;;9.13;4.40;;;;;;;18.95;43.69;102481.34;3614823;39;20066;-64
2023/05/30 09:10:49;;;;;;;8.60;3.92;;;;;;;18.81;44.37;102426.97;3613822;39;20087;-66
2023/05/30 09:13:15;;;;;;;10.10;4.60;;;;;;;19.14;44.86;102455.50;3614508;39;20050;-66
2023/05/30 09:15:41;;;;;;;9.50;4.57;;;;;;;19.40;42.85;102484.47;3615259;39;20059;-66
2023/05/30 09:18:06;;;;;;;10.23;5.30;;;;;;;19.41;44.13;102450.78;3614325;39;20051;-66
2023/05/30 09:20:32;;;;;;;10.07;4.93;;;;;;;19.44;42.72;102474.19;3614110;39;20440;-65
2023/05/30 09:23:01;;;;;;;8.25;4.85;;;;;;;19.72;43.91;102481.25;3615519;39;20059;-66
2023/05/30 09:25:45;;;;;;;9.25;5.30;;;;;;;19.70;42.63;102466.88;3613897;39;20062;-66
2023/05/30 09:28:12;;;;;;;9.55;4.90;;;;;;;19.80;41.63;102475.25;3614172;39;20074;-66
2023/05/30 09:31:00;;;;;;;10.07;5.13;;;;;;;19.92;44.06;102464.28;3614876;39;20055;-66
2023/05/30 09:33:51;;;;;;;10.10;5.55;;;;;;;20.02;43.29;102464.47;3614019;39;20039;-66
2023/05/30 09:36:26;;;;;;;10.15;5.18;;;;;;;20.02;41.35;102467.19;3616413;39;20055;-66
2023/05/30 09:38:59;;;;;;;11.75;5.60;;;;;;;20.12;43.15;102454.56;3615545;39;20332;-66
2023/05/30 09:41:27;;;;;;;10.80;5.38;;;;;;;20.14;44.45;102460.78;3614015;39;20059;-67
2023/05/30 09:43:54;;;;;;;11.32;5.32;;;;;;;20.24;43.08;102460.09;3617028;39;20046;-65
2023/05/30 09:46:27;;;;;;;9.23;5.85;;;;;;;20.45;44.10;102444.75;3615833;39;20053;-65
2023/05/30 09:48:53;;;;;;;9.70;5.70;;;;;;;20.50;44.46;102445.28;3617647;39;20054;-65
2023/05/30 09:51:22;;;;;;;8.35;5.10;;;;;;;20.54;40.46;102449.53;3616553;39;20047;-65
2023/05/30 09:54:02;;;;;;;11.40;5.45;;;;;;;20.79;41.01;102458.53;3614408;39;20094;-65
2023/05/30 09:56:39;;;;;;;11.40;5.20;;;;;;;20.69;39.34;102452.06;3614831;39;20051;-65
2023/05/30 09:59:10;;;;;;;12.85;5.70;;;;;;;20.74;40.84;102449.81;3613506;39;20077;-67
2023/05/30 10:01:46;;;;;;;12.65;5.50;;;;;;;20.81;42.80;102451.09;3613946;39;20120;-66
2023/05/30 10:04:18;;;;;;;19.98;6.00;;;;;;;21.13;42.15;102443.03;3615670;39;20061;-66
2023/05/30 10:06:47;;;;;;;12.07;5.80;;;;;;;21.09;41.59;102414.19;3614363;39;20054;-65
2023/05/30 10:09:14;;;;;;;8.75;5.03;;;;;;;21.45;39.26;102432.22;3616254;39;20058;-66
2023/05/30 10:11:42;;;;;;;11.18;5.63;;;;;;;21.58;38.53;102434.81;3614513;39;20069;-66
2023/05/30 10:14:11;;;;;;;11.77;5.57;;;;;;;21.53;40.35;102443.41;3615439;39;20059;-67
2023/05/30 10:16:48;;;;;;;9.20;5.20;;;;;;;21.65;37.76;102448.84;3613591;39;20059;-66
2023/05/30 10:19:18;;;;;;;8.30;4.90;;;;;;;21.76;40.78;102432.41;3614061;39;20058;-66
2023/05/30 10:21:45;;;;;;;18.52;6.57;;;;;;;21.88;38.57;102431.34;3613817;39;20083;-66
2023/05/30 10:24:19;;;;;;;11.75;5.50;;;;;;;22.10;37.59;102445.97;3615591;39;20054;-67
2023/05/30 10:26:55;;;;;;;12.10;5.60;;;;;;;22.19;36.70;102423.31;3610487;39;20054;-66
2023/05/30 10:29:28;;;;;;;11.38;5.47;;;;;;;22.44;37.73;102444.84;3614297;39;20058;-66
2023/05/30 10:31:55;;;;;;;;;;;;;;;22.45;37.09;102437.50;3611059;39;20095;-67
2023/05/30 10:34:53;;;;;;;10.02;5.70;;;;;;;22.38;36.20;102434.41;3614274;39;19966;-66
2023/05/30 10:37:20;;;;;;;10.32;5.78;;;;;;;22.39;37.73;102429.81;3615923;39;20058;-66
2023/05/30 10:40:31;;;;;;;9.93;5.95;;;;;;;22.20;37.73;102434.16;3614326;39;20047;-66
2023/05/30 10:43:08;;;;;;;9.40;5.22;;;;;;;22.41;38.40;102428.66;3611980;39;20059;-66
2023/05/30 10:46:24;;;;;;;8.10;4.93;;;;;;;22.57;38.64;102419.13;3613896;39;20114;-66
2023/05/30 10:48:58;;;;;;;8.60;4.95;;;;;;;22.72;35.84;102434.22;3599996;39;20136;-66
2023/05/30 10:51:23;;;;;;;12.82;6.45;;;;;;;22.80;35.58;102426.16;3609330;39;20411;-65
2023/05/30 10:53:49;;;;;;;11.85;5.47;;;;;;;22.55;38.12;102390.97;3609101;39;20051;-66
2023/05/30 10:56:40;;;;;;;14.27;5.45;;;;;;;22.78;37.16;102411.75;3609743;39;20089;-66
2023/05/30 10:59:19;;;;;;;14.18;6.43;;;;;;;22.92;36.91;102416.84;3608446;39;20112;-66
2023/05/30 11:02:08;;;;;;;10.68;5.70;;;;;;;23.06;36.41;102401.09;3611070;39;20370;-66
2023/05/30 11:04:42;;;;;;;10.70;5.40;;;;;;;23.10;37.80;102403.41;3601955;39;20660;-67
2023/05/30 11:07:11;;;;;;;10.20;5.38;;;;;;;22.99;35.09;102369.72;3610781;39;20055;-67
2023/05/30 11:10:07;;;;;;;14.60;5.93;;;;;;;23.13;35.54;102405.88;3608481;39;20054;-67
2023/05/30 11:12:42;;;;;;;10.57;5.13;;;;;;;23.17;37.28;102396.34;3608617;39;20055;-66
2023/05/30 11:15:08;;;;;;;8.88;5.30;;;;;;;23.13;35.77;102396.78;3609363;39;20047;-66
2023/05/30 11:17:37;;;;;;;9.85;5.70;;;;;;;23.17;36.39;102398.22;3608821;39;20437;-67
2023/05/30 11:20:09;;;;;;;9.45;5.28;;;;;;;23.35;36.79;102396.56;3608933;39;20423;-67
2023/05/30 11:22:37;;;;;;;13.45;5.28;;;;;;;23.38;35.41;102368.84;3609767;39;20066;-66
2023/05/30 11:25:23;;;;;;;10.00;5.32;;;;;;;23.66;34.71;102388.25;3609734;39;20110;-67
2023/05/30 11:28:04;;;;;;;9.55;5.82;;;;;;;23.66;34.80;102399.25;3606484;39;20054;-66